Douds, Iowa
Current Conditions -  °F | °C
As of 2:15 PM on Wednesday 28 Jan 2015 (Local Time) from KFFL Reporting Station
Clear Clear  
Wind Chill: 34°   Ceiling: Unl
Heat Index: 43°   Visibility: NA
Dew Point: 32°   Wind: 21mph
Humidity: 66%   Direction: 150°SSE
Pressure: 29.85"   Gusts: NA
Location:  40.84°N, 92.09°W
Report Text: KFFL 282015Z AUTO 15018KT CLR 06/00 A2985 RMK AO2
Loading
Personal Weather Stations






























Interactive Weather Map New forecast layout! Learn more

10-Day Weather Forecast

Advertisements
Track Severe Weather on mobile